Time;durP1;ratioP1;P1;durP2;ratioP2;P2;SDS_P1;SDS_P2;PMS_P1;PMS_P2;Temp;Humidity;BMP_temperature;BMP_pressure;BME280_temperature;BME280_humidity;BME280_pressure;Samples;Min_cycle;Max_cycle;Signal;HPM_P1;HPM_P2
2023/09/10 00:00:22;;;;;;;10.77;9.77;;;20.60;99.90;;;;;;4988380;28;20483;-71
2023/09/10 00:02:48;;;;;;;11.60;10.37;;;20.50;99.90;;;;;;4984219;28;20409;-71
2023/09/10 00:05:13;;;;;;;11.10;9.77;;;20.50;99.90;;;;;;4989329;28;20438;-71
2023/09/10 00:07:39;;;;;;;11.87;10.67;;;20.40;99.90;;;;;;4986318;28;20542;-70
2023/09/10 00:10:05;;;;;;;12.10;10.40;;;20.80;99.90;;;;;;4987411;28;20977;-71
2023/09/10 00:12:31;;;;;;;11.18;10.05;;;20.40;99.90;;;;;;4985963;28;20599;-71
2023/09/10 00:14:57;;;;;;;11.10;10.00;;;20.40;99.90;;;;;;4989467;28;20207;-71
2023/09/10 00:17:22;;;;;;;12.90;11.00;;;20.50;99.90;;;;;;4985998;28;20568;-71
2023/09/10 00:19:48;;;;;;;11.83;9.60;;;20.40;99.90;;;;;;4989637;28;20227;-71
2023/09/10 00:22:14;;;;;;;11.67;10.57;;;20.40;99.90;;;;;;4987183;28;20254;-71
2023/09/10 00:24:39;;;;;;;12.03;10.73;;;20.40;99.90;;;;;;4988494;28;20183;-71
2023/09/10 00:27:05;;;;;;;11.77;10.67;;;20.40;99.90;;;;;;4987551;28;20279;-71
2023/09/10 00:29:30;;;;;;;11.53;10.53;;;20.40;99.90;;;;;;4987098;28;20238;-71
2023/09/10 00:31:56;;;;;;;11.47;10.37;;;20.40;99.90;;;;;;4986481;28;20192;-71
2023/09/10 00:34:22;;;;;;;14.90;11.50;;;20.40;99.90;;;;;;4989179;28;20195;-71
2023/09/10 00:36:47;;;;;;;14.70;10.60;;;20.40;99.90;;;;;;4989400;28;20188;-71
2023/09/10 00:39:13;;;;;;;12.00;10.80;;;20.40;99.90;;;;;;4984376;28;20207;-71
2023/09/10 00:41:38;;;;;;;11.23;10.17;;;20.40;99.90;;;;;;4986469;28;20179;-71
2023/09/10 00:44:04;;;;;;;12.47;9.90;;;20.40;99.90;;;;;;4988765;28;20271;-71
2023/09/10 00:46:30;;;;;;;10.27;9.17;;;20.40;99.90;;;;;;4988957;28;20271;-71
2023/09/10 00:48:58;;;;;;;13.10;10.60;;;20.30;99.90;;;;;;4986515;28;20732;-71
2023/09/10 00:51:24;;;;;;;10.52;9.25;;;20.30;99.90;;;;;;4988433;28;20443;-70
2023/09/10 00:53:50;;;;;;;11.80;9.10;;;20.20;99.90;;;;;;4988261;28;20207;-70
2023/09/10 00:56:16;;;;;;;9.93;9.10;;;20.10;99.90;;;;;;4987431;28;20221;-71
2023/09/10 00:58:42;;;;;;;10.90;9.57;;;20.10;99.90;;;;;;4987918;28;20217;-71
2023/09/10 01:01:08;;;;;;;9.68;8.88;;;20.10;99.90;;;;;;4985852;28;20253;-71
2023/09/10 01:03:35;;;;;;;9.90;9.10;;;20.10;99.90;;;;;;4984125;28;22069;-71
2023/09/10 01:06:02;;;;;;;9.70;9.00;;;20.10;99.90;;;;;;4988494;28;20523;-71
2023/09/10 01:08:27;;;;;;;10.88;9.63;;;20.10;99.90;;;;;;4985823;28;20936;-71
2023/09/10 01:11:02;;;;;;;11.50;10.30;;;20.20;99.90;;;;;;4987981;28;20207;-71
2023/09/10 01:13:41;;;;;;;10.55;9.55;;;20.20;99.90;;;;;;4986381;28;20195;-71
2023/09/10 01:16:23;;;;;;;10.90;10.00;;;20.20;99.90;;;;;;4986493;28;20246;-71
2023/09/10 01:19:00;;;;;;;11.05;10.10;;;20.10;99.90;;;;;;4985997;28;20239;-71
2023/09/10 01:21:37;;;;;;;10.90;9.77;;;20.10;99.90;;;;;;4985612;28;20215;-71
2023/09/10 01:24:14;;;;;;;10.70;9.80;;;20.10;99.90;;;;;;4987444;28;20212;-71
2023/09/10 01:26:41;;;;;;;10.95;9.85;;;20.00;99.90;;;;;;4985479;28;20187;-71
2023/09/10 01:29:13;;;;;;;10.48;9.38;;;20.10;99.90;;;;;;4988260;28;20226;-71
2023/09/10 01:31:40;;;;;;;10.23;9.15;;;20.10;99.90;;;;;;4983439;28;20187;-71
2023/09/10 01:34:12;;;;;;;11.13;10.13;;;20.00;99.90;;;;;;4986576;28;20653;-71
2023/09/10 01:36:51;;;;;;;10.80;9.70;;;20.10;99.90;;;;;;4986630;28;20680;-71
2023/09/10 01:39:26;;;;;;;10.35;9.38;;;20.00;99.90;;;;;;4985418;28;20807;-71
2023/09/10 01:41:52;;;;;;;10.68;9.68;;;20.00;99.90;;;;;;4984937;28;20670;-70
2023/09/10 01:44:19;;;;;;;11.50;10.30;;;20.00;99.90;;;;;;4986885;28;20193;-71
2023/09/10 01:46:45;;;;;;;11.52;10.48;;;20.00;99.90;;;;;;4987969;28;20258;-71
2023/09/10 01:49:11;;;;;;;10.67;9.67;;;19.90;99.90;;;;;;4979568;28;20305;-71
2023/09/10 01:51:37;;;;;;;10.70;9.80;;;19.90;99.90;;;;;;4986846;28;20841;-71
2023/09/10 01:54:02;;;;;;;10.27;9.33;;;19.90;99.90;;;;;;4986447;28;20226;-71
2023/09/10 01:56:28;;;;;;;10.63;9.27;;;19.90;99.90;;;;;;4987886;28;20250;-71
2023/09/10 01:58:54;;;;;;;10.53;9.47;;;19.90;99.90;;;;;;4986832;28;20474;-72
2023/09/10 02:01:19;;;;;;;12.27;9.50;;;19.80;99.90;;;;;;4986823;28;20668;-71
2023/09/10 02:03:45;;;;;;;11.00;9.90;;;19.70;99.90;;;;;;4985008;28;20190;-71
2023/09/10 02:06:10;;;;;;;10.20;9.00;;;19.70;99.90;;;;;;4987570;28;20183;-71
2023/09/10 02:08:36;;;;;;;10.70;9.70;;;19.70;99.90;;;;;;4984387;28;20242;-71
2023/09/10 02:11:05;;;;;;;9.50;8.80;;;19.70;99.90;;;;;;4987940;28;20174;-71
2023/09/10 02:13:31;;;;;;;10.55;9.52;;;19.70;99.90;;;;;;4986210;28;20547;-71
2023/09/10 02:15:56;;;;;;;11.00;9.90;;;19.80;99.90;;;;;;4987166;28;20175;-71
2023/09/10 02:18:22;;;;;;;10.53;9.43;;;19.80;99.90;;;;;;4983652;28;20282;-71
2023/09/10 02:20:48;;;;;;;10.67;9.40;;;19.70;99.90;;;;;;4987211;28;20205;-71
2023/09/10 02:23:14;;;;;;;11.02;9.93;;;19.70;99.90;;;;;;4984770;28;20660;-71
2023/09/10 02:25:39;;;;;;;10.27;9.27;;;19.80;99.90;;;;;;4985104;28;20191;-71
2023/09/10 02:28:05;;;;;;;10.50;9.50;;;19.70;99.90;;;;;;4985051;28;20208;-71
2023/09/10 02:30:31;;;;;;;12.65;11.10;;;19.80;99.90;;;;;;4987996;28;20238;-71
2023/09/10 02:32:56;;;;;;;10.97;9.97;;;19.70;99.90;;;;;;4984820;28;20791;-71
2023/09/10 02:35:23;;;;;;;9.73;8.93;;;19.70;99.90;;;;;;4991227;28;20187;-71
2023/09/10 02:37:48;;;;;;;11.63;9.00;;;19.70;99.90;;;;;;4988511;28;20222;-71
2023/09/10 02:40:14;;;;;;;10.60;9.60;;;19.90;99.90;;;;;;4990348;28;20210;-71
2023/09/10 02:42:40;;;;;;;10.30;9.40;;;19.60;99.90;;;;;;4990556;28;20191;-71
2023/09/10 02:45:06;;;;;;;10.10;9.20;;;19.60;99.90;;;;;;4989712;28;20641;-71
2023/09/10 02:47:31;;;;;;;11.10;9.70;;;19.70;99.90;;;;;;4990937;28;20274;-71
2023/09/10 02:49:57;;;;;;;11.07;9.77;;;19.60;99.90;;;;;;4988814;28;20410;-71
2023/09/10 02:52:26;;;;;;;10.10;9.20;;;19.60;99.90;;;;;;4989666;28;20203;-71
2023/09/10 02:54:52;;;;;;;11.18;10.10;;;19.60;99.90;;;;;;4989289;28;20202;-71
2023/09/10 02:57:17;;;;;;;11.43;10.17;;;19.50;99.90;;;;;;4990669;28;20891;-71
2023/09/10 02:59:43;;;;;;;12.97;9.70;;;19.50;99.90;;;;;;4989003;28;20206;-71
2023/09/10 03:02:09;;;;;;;11.60;9.50;;;19.50;99.90;;;;;;4989821;28;20207;-70
2023/09/10 03:04:34;;;;;;;10.13;9.23;;;19.50;99.90;;;;;;4991185;28;20453;-71
2023/09/10 03:07:03;;;;;;;11.27;10.10;;;19.50;99.90;;;;;;4989810;28;20184;-71
2023/09/10 03:09:28;;;;;;;11.60;10.00;;;19.40;99.90;;;;;;4987366;28;20215;-70
2023/09/10 03:12:20;;;;;;;10.57;9.47;;;19.40;99.90;;;;;;4987725;28;20179;-71
2023/09/10 03:14:45;;;;;;;10.68;9.75;;;19.00;99.90;;;;;;4990600;28;20187;-71
2023/09/10 03:17:11;;;;;;;10.47;9.20;;;19.40;99.90;;;;;;4988843;28;20183;-71
2023/09/10 03:19:37;;;;;;;10.87;9.77;;;19.30;99.90;;;;;;4986974;28;20231;-70
2023/09/10 03:22:04;;;;;;;13.18;9.95;;;19.30;99.90;;;;;;4986569;28;20175;-69
2023/09/10 03:24:33;;;;;;;10.70;9.32;;;19.00;99.90;;;;;;4986202;28;20179;-70
2023/09/10 03:26:58;;;;;;;10.65;9.68;;;19.30;99.90;;;;;;4989944;28;20192;-70
2023/09/10 03:29:24;;;;;;;10.37;9.50;;;19.20;99.90;;;;;;4988307;28;20743;-70
2023/09/10 03:31:49;;;;;;;11.60;9.90;;;19.20;99.90;;;;;;4987987;28;20270;-70
2023/09/10 03:34:15;;;;;;;11.63;10.47;;;19.20;99.90;;;;;;4990562;28;20192;-71
2023/09/10 03:36:41;;;;;;;10.73;9.60;;;19.50;99.90;;;;;;4989279;28;20562;-69
2023/09/10 03:39:07;;;;;;;10.85;9.85;;;19.50;99.90;;;;;;4988158;28;20252;-69
2023/09/10 03:41:32;;;;;;;11.30;10.20;;;19.10;99.90;;;;;;4988661;28;20191;-69
2023/09/10 03:43:59;;;;;;;12.60;9.93;;;19.20;99.90;;;;;;4990040;28;20284;-70
2023/09/10 03:46:25;;;;;;;10.90;10.00;;;19.10;99.90;;;;;;4988294;28;20632;-70
2023/09/10 03:48:50;;;;;;;11.40;10.30;;;19.30;99.90;;;;;;4989540;28;20222;-69
2023/09/10 03:51:16;;;;;;;11.07;10.07;;;19.10;99.90;;;;;;4989245;28;20195;-70
2023/09/10 03:53:42;;;;;;;10.85;9.77;;;19.10;99.90;;;;;;4988297;28;20200;-70
2023/09/10 03:56:08;;;;;;;12.17;11.00;;;19.10;99.90;;;;;;4990417;28;20193;-70
2023/09/10 03:58:34;;;;;;;10.60;9.03;;;19.00;99.90;;;;;;4987963;28;20212;-70
2023/09/10 04:00:59;;;;;;;11.97;10.80;;;19.00;99.90;;;;;;4987222;28;20286;-69
2023/09/10 04:03:26;;;;;;;11.60;10.50;;;18.90;99.90;;;;;;4988605;28;20226;-70
2023/09/10 04:05:52;;;;;;;11.35;10.35;;;18.90;99.90;;;;;;4988009;28;20187;-70
2023/09/10 04:08:18;;;;;;;12.52;10.90;;;18.80;99.90;;;;;;4986451;28;20262;-70
2023/09/10 04:10:44;;;;;;;11.98;10.85;;;18.80;99.90;;;;;;4989986;28;20191;-70
2023/09/10 04:13:10;;;;;;;11.70;9.83;;;18.80;99.90;;;;;;4985598;28;20242;-70
2023/09/10 04:15:35;;;;;;;11.37;10.30;;;18.80;99.90;;;;;;4988833;28;20274;-71
2023/09/10 04:18:06;;;;;;;11.40;10.40;;;18.90;99.90;;;;;;4986623;28;20294;-70
2023/09/10 04:20:32;;;;;;;10.77;9.88;;;18.70;99.90;;;;;;4988491;28;20207;-70
2023/09/10 04:22:57;;;;;;;10.85;9.95;;;18.80;99.90;;;;;;4987990;28;20232;-70
2023/09/10 04:25:23;;;;;;;12.60;11.30;;;18.80;99.90;;;;;;4989456;28;20706;-71
2023/09/10 04:27:49;;;;;;;11.60;10.50;;;18.90;99.90;;;;;;4989326;28;20234;-71
2023/09/10 04:30:15;;;;;;;11.23;10.33;;;18.90;99.90;;;;;;4989414;28;20217;-71
2023/09/10 04:32:40;;;;;;;11.83;9.87;;;18.90;99.90;;;;;;4987890;28;20198;-71
2023/09/10 04:35:07;;;;;;;11.47;10.47;;;18.80;99.90;;;;;;4990085;28;20189;-71
2023/09/10 04:37:34;;;;;;;11.68;10.48;;;18.80;99.90;;;;;;4986658;28;20191;-71
2023/09/10 04:40:06;;;;;;;11.00;10.00;;;18.40;99.90;;;;;;4980464;28;20204;-71
2023/09/10 04:42:32;;;;;;;12.52;10.80;;;18.80;99.90;;;;;;4987947;28;20253;-71
2023/09/10 04:44:58;;;;;;;11.50;10.50;;;18.80;99.90;;;;;;4984251;28;20192;-71
2023/09/10 04:47:23;;;;;;;11.30;10.30;;;18.80;99.90;;;;;;4987281;28;20584;-70
2023/09/10 04:49:49;;;;;;;11.93;10.77;;;18.80;99.90;;;;;;4987291;28;20187;-71
2023/09/10 04:52:15;;;;;;;11.40;10.30;;;18.80;99.90;;;;;;4987804;28;20187;-71
2023/09/10 04:54:42;;;;;;;12.15;10.85;;;18.90;99.90;;;;;;4986688;28;20207;-70
2023/09/10 04:57:08;;;;;;;11.43;10.30;;;18.80;99.90;;;;;;4987628;28;20183;-70
2023/09/10 04:59:34;;;;;;;11.05;9.55;;;18.80;99.90;;;;;;4985080;28;20215;-70
2023/09/10 05:02:00;;;;;;;10.20;9.20;;;19.20;99.90;;;;;;4986355;28;20665;-70
2023/09/10 05:04:27;;;;;;;12.25;9.88;;;18.70;99.90;;;;;;4986221;28;20208;-70
2023/09/10 05:06:53;;;;;;;11.03;10.13;;;18.60;99.90;;;;;;4986606;28;20181;-71
2023/09/10 05:09:18;;;;;;;10.60;9.60;;;18.60;99.90;;;;;;4984449;28;20466;-70
2023/09/10 05:11:44;;;;;;;11.33;10.33;;;18.60;99.90;;;;;;4987790;28;20246;-71
2023/09/10 05:14:09;;;;;;;10.37;9.50;;;18.60;99.90;;;;;;4988440;28;20672;-71
2023/09/10 05:16:35;;;;;;;11.43;10.23;;;18.60;99.90;;;;;;4986180;28;20640;-70
2023/09/10 05:19:01;;;;;;;11.43;10.17;;;18.60;99.90;;;;;;4987920;28;20218;-70
2023/09/10 05:21:27;;;;;;;11.07;9.97;;;18.60;99.90;;;;;;4985178;28;20452;-70
2023/09/10 05:23:52;;;;;;;11.33;10.13;;;18.60;99.90;;;;;;4985073;28;20200;-72
2023/09/10 05:26:18;;;;;;;10.57;9.57;;;18.70;99.90;;;;;;4984899;28;20189;-71
2023/09/10 05:28:43;;;;;;;10.50;9.53;;;18.60;99.90;;;;;;4986585;28;20199;-70
2023/09/10 05:31:09;;;;;;;10.00;8.90;;;18.70;99.90;;;;;;4987291;28;20187;-70
2023/09/10 05:33:35;;;;;;;10.90;9.90;;;18.70;99.90;;;;;;4983960;28;20684;-71
2023/09/10 05:36:00;;;;;;;11.50;10.50;;;18.70;99.90;;;;;;4988289;28;20555;-70
2023/09/10 05:38:26;;;;;;;10.30;9.33;;;18.80;99.90;;;;;;4985840;28;20470;-70
2023/09/10 05:40:53;;;;;;;11.90;10.90;;;18.70;99.90;;;;;;4984427;28;20640;-70
2023/09/10 05:43:19;;;;;;;10.88;9.88;;;18.70;99.90;;;;;;4987161;28;20524;-70
2023/09/10 05:45:48;;;;;;;11.20;10.17;;;18.70;99.90;;;;;;4986002;28;20176;-70
2023/09/10 05:48:13;;;;;;;12.82;11.52;;;18.70;99.90;;;;;;4985129;28;20230;-71
2023/09/10 05:50:40;;;;;;;12.23;9.97;;;18.80;99.90;;;;;;4986944;28;20556;-71
2023/09/10 05:53:06;;;;;;;10.63;9.70;;;18.90;99.90;;;;;;4982913;28;20730;-69
2023/09/10 05:55:31;;;;;;;11.63;10.63;;;19.30;99.90;;;;;;4985092;28;20187;-71
2023/09/10 05:57:57;;;;;;;11.40;9.40;;;19.00;99.90;;;;;;4983954;28;20227;-71
2023/09/10 06:00:23;;;;;;;10.50;9.40;;;19.00;99.90;;;;;;4984422;28;20672;-71
2023/09/10 06:02:49;;;;;;;12.40;10.67;;;18.90;99.90;;;;;;4984708;28;20201;-71
2023/09/10 06:05:16;;;;;;;12.13;10.85;;;19.00;99.90;;;;;;4985420;28;20820;-71
2023/09/10 06:07:42;;;;;;;11.15;9.75;;;19.20;99.90;;;;;;4983567;28;20630;-70
2023/09/10 06:10:09;;;;;;;11.70;10.20;;;19.20;99.90;;;;;;4986547;28;20259;-71
2023/09/10 06:12:39;;;;;;;10.95;9.90;;;19.40;99.90;;;;;;4992387;28;20218;-71
2023/09/10 06:15:06;;;;;;;10.80;9.82;;;19.40;99.90;;;;;;4984166;28;20230;-71
2023/09/10 06:17:32;;;;;;;11.77;10.35;;;19.50;99.90;;;;;;4982993;28;20248;-70
2023/09/10 06:19:58;;;;;;;10.40;9.40;;;19.60;99.90;;;;;;4987297;28;20301;-71
2023/09/10 06:22:23;;;;;;;10.20;9.20;;;19.40;99.90;;;;;;4986796;28;20274;-70
2023/09/10 06:24:49;;;;;;;13.93;10.87;;;19.70;99.90;;;;;;4985550;28;20698;-71
2023/09/10 06:27:14;;;;;;;10.93;9.87;;;19.70;99.90;;;;;;4988237;28;20211;-69
2023/09/10 06:29:40;;;;;;;11.07;9.97;;;19.80;99.90;;;;;;4985192;28;20699;-69
2023/09/10 06:32:06;;;;;;;9.97;9.17;;;20.00;99.90;;;;;;4982796;28;20226;-70
2023/09/10 06:34:32;;;;;;;11.43;10.33;;;20.20;99.90;;;;;;4986951;28;20478;-70
2023/09/10 06:36:58;;;;;;;10.33;9.30;;;20.20;99.90;;;;;;4987334;28;20242;-70
2023/09/10 06:39:24;;;;;;;10.95;9.90;;;20.40;99.90;;;;;;4982020;28;20649;-70
2023/09/10 06:41:53;;;;;;;11.60;10.48;;;20.60;99.90;;;;;;4986153;28;20286;-70
2023/09/10 06:44:18;;;;;;;11.03;10.10;;;20.80;99.90;;;;;;4986006;28;20192;-71
2023/09/10 06:46:44;;;;;;;11.70;10.77;;;21.10;99.90;;;;;;4985969;28;20438;-70
2023/09/10 06:49:10;;;;;;;12.83;10.70;;;21.80;99.90;;;;;;4986233;28;20262;-71
2023/09/10 06:51:35;;;;;;;13.07;11.00;;;22.10;99.90;;;;;;4986911;28;20215;-69
2023/09/10 06:54:01;;;;;;;10.17;9.27;;;21.90;99.90;;;;;;4985493;28;20194;-69
2023/09/10 06:56:28;;;;;;;11.77;10.53;;;22.10;99.90;;;;;;4986980;28;20248;-70
2023/09/10 06:58:54;;;;;;;11.17;10.27;;;22.40;99.90;;;;;;4986498;28;20487;-70
2023/09/10 07:01:21;;;;;;;12.10;11.10;;;22.60;99.90;;;;;;4987012;28;20443;-70
2023/09/10 07:03:49;;;;;;;11.50;10.60;;;22.90;99.90;;;;;;4983948;28;20202;-71
2023/09/10 07:06:15;;;;;;;13.80;10.87;;;23.90;99.90;;;;;;4985389;28;20484;-69
2023/09/10 07:08:40;;;;;;;9.37;8.47;;;26.10;99.90;;;;;;4985916;28;20536;-72
2023/09/10 07:11:06;;;;;;;8.80;8.00;;;28.70;96.30;;;;;;4985343;28;20191;-72
2023/09/10 07:13:32;;;;;;;9.73;8.87;;;31.20;91.20;;;;;;4982021;28;20280;-72
2023/09/10 07:15:57;;;;;;;8.70;8.00;;;32.90;81.90;;;;;;4986584;28;20195;-72
2023/09/10 07:18:23;;;;;;;8.53;7.83;;;34.30;76.10;;;;;;4985670;28;20211;-72
2023/09/10 07:20:49;;;;;;;9.10;8.50;;;35.20;70.00;;;;;;4989174;28;20270;-72
2023/09/10 07:23:14;;;;;;;9.00;8.40;;;36.40;65.50;;;;;;4988491;28;20562;-72
2023/09/10 07:25:40;;;;;;;10.07;9.17;;;37.60;60.90;;;;;;4987156;28;20196;-73
2023/09/10 07:28:06;;;;;;;8.53;7.73;;;38.70;57.00;;;;;;4989518;28;20238;-72
2023/09/10 07:30:32;;;;;;;10.40;9.50;;;39.50;54.40;;;;;;4989677;28;20213;-73
2023/09/10 07:32:58;;;;;;;10.20;9.30;;;39.10;51.80;;;;;;4988778;28;20554;-73
2023/09/10 07:35:23;;;;;;;9.60;8.90;;;39.40;52.10;;;;;;4986210;28;20215;-72
2023/09/10 07:37:49;;;;;;;9.47;8.77;;;40.30;50.60;;;;;;4984166;28;20844;-72
2023/09/10 07:40:15;;;;;;;9.77;8.87;;;41.00;49.20;;;;;;4989079;28;20302;-73
2023/09/10 07:42:40;;;;;;;9.07;8.37;;;41.60;47.60;;;;;;4989472;28;20203;-73
2023/09/10 07:45:13;;;;;;;9.03;8.33;;;42.20;46.10;;;;;;4986757;28;20191;-73
2023/09/10 07:47:40;;;;;;;10.33;9.40;;;42.50;44.60;;;;;;4985927;28;20262;-72
2023/09/10 07:50:06;;;;;;;9.30;8.60;;;42.50;44.00;;;;;;4989810;28;20437;-73
2023/09/10 07:52:32;;;;;;;9.97;9.10;;;42.40;43.70;;;;;;4988192;28;20939;-72
2023/09/10 07:54:57;;;;;;;10.07;9.17;;;42.70;43.00;;;;;;4989234;28;20457;-73
2023/09/10 07:57:24;;;;;;;9.93;9.10;;;43.20;42.50;;;;;;4988712;28;20584;-73
2023/09/10 07:59:51;;;;;;;9.73;9.03;;;43.50;41.80;;;;;;4989910;28;20207;-73
2023/09/10 08:02:17;;;;;;;10.50;9.63;;;43.60;41.00;;;;;;4983612;28;20538;-72
2023/09/10 08:04:43;;;;;;;10.10;9.20;;;43.50;40.70;;;;;;4988452;28;20545;-72
2023/09/10 08:07:10;;;;;;;11.20;10.20;;;43.10;41.30;;;;;;4986397;28;20192;-74
2023/09/10 08:09:39;;;;;;;10.23;9.33;;;43.10;41.10;;;;;;4988091;28;20470;-74
2023/09/10 08:12:05;;;;;;;10.97;10.03;;;43.30;41.10;;;;;;4989518;28;20445;-74
2023/09/10 08:14:31;;;;;;;11.43;10.63;;;43.10;40.00;;;;;;4987264;28;20478;-74
2023/09/10 08:16:57;;;;;;;10.07;9.37;;;43.30;40.70;;;;;;4986938;28;20450;-79
2023/09/10 08:19:22;;;;;;;10.00;9.27;;;43.50;40.40;;;;;;4983957;28;20474;-75
2023/09/10 08:21:48;;;;;;;10.90;10.20;;;43.80;40.10;;;;;;4989489;28;20187;-75
2023/09/10 08:24:14;;;;;;;12.33;11.53;;;43.80;39.30;;;;;;4985501;28;20271;-76
2023/09/10 08:26:39;;;;;;;11.30;10.30;;;42.90;40.30;;;;;;4987381;28;20307;-77
2023/09/10 08:29:05;;;;;;;11.63;10.53;;;41.50;41.90;;;;;;4985379;28;20207;-79
2023/09/10 08:31:31;;;;;;;11.13;10.13;;;40.40;43.60;;;;;;4996150;28;20183;-84
2023/09/10 08:33:57;;;;;;;12.30;11.30;;;39.50;45.20;;;;;;4999152;28;20603;-84
2023/09/10 08:36:23;;;;;;;11.17;10.23;;;38.50;46.80;;;;;;4988838;28;20447;-78
2023/09/10 08:38:49;;;;;;;11.43;10.63;;;37.50;48.10;;;;;;4987733;28;20211;-79
2023/09/10 08:41:24;;;;;;;12.03;11.10;;;36.30;50.30;;;;;;4989167;28;20186;-77
2023/09/10 08:43:57;;;;;;;12.77;11.80;;;35.20;52.70;;;;;;4988681;28;20453;-76
2023/09/10 08:46:30;;;;;;;12.73;11.63;;;34.10;54.90;;;;;;4987111;28;20438;-78
2023/09/10 08:48:57;;;;;;;12.47;11.50;;;32.90;57.70;;;;;;4986752;28;20962;-78
2023/09/10 08:51:23;;;;;;;11.53;10.70;;;31.80;59.80;;;;;;4985729;28;20525;-78
2023/09/10 08:53:50;;;;;;;12.60;11.50;;;31.20;63.40;;;;;;4988988;28;20941;-73
2023/09/10 08:56:15;;;;;;;11.10;10.20;;;30.50;66.10;;;;;;4988242;28;20438;-75
2023/09/10 08:58:42;;;;;;;12.97;11.67;;;29.90;70.10;;;;;;4986555;28;20493;-74
2023/09/10 09:01:12;;;;;;;12.60;11.57;;;29.30;72.40;;;;;;4987487;28;20193;-72
2023/09/10 09:03:37;;;;;;;11.70;10.47;;;28.60;75.70;;;;;;4986155;28;20458;-72
2023/09/10 09:06:04;;;;;;;16.23;12.80;;;28.50;78.40;;;;;;4987594;28;20462;-72
2023/09/10 09:08:41;;;;;;;11.60;10.67;;;28.50;81.60;;;;;;4986193;28;20235;-74
2023/09/10 09:11:08;;;;;;;12.13;11.13;;;28.40;80.80;;;;;;4981273;28;20479;-72
2023/09/10 09:13:40;;;;;;;10.70;9.70;;;27.70;82.20;;;;;;4984530;28;20445;-73
2023/09/10 09:16:07;;;;;;;14.47;13.17;;;27.90;83.90;;;;;;4987048;28;20528;-73
2023/09/10 09:18:35;;;;;;;10.47;9.43;;;28.10;83.70;;;;;;4986943;28;20485;-73
2023/09/10 09:21:24;;;;;;;11.47;10.37;;;28.20;83.70;;;;;;4985952;28;20883;-73
2023/09/10 09:23:54;;;;;;;12.27;10.07;;;28.20;83.50;;;;;;4984186;28;20447;-72
2023/09/10 09:26:22;;;;;;;10.23;9.40;;;28.10;82.40;;;;;;4988267;28;20479;-73
2023/09/10 09:28:48;;;;;;;11.20;10.17;;;28.20;82.90;;;;;;4984915;28;20546;-75
2023/09/10 09:31:14;;;;;;;10.43;9.53;;;28.30;81.90;;;;;;4987835;28;20448;-74
2023/09/10 09:33:40;;;;;;;10.63;9.73;;;28.30;81.30;;;;;;4986801;28;20476;-73
2023/09/10 09:36:10;;;;;;;10.33;9.33;;;28.30;80.20;;;;;;4999664;28;20269;-74
2023/09/10 09:38:44;;;;;;;9.83;9.13;;;28.60;80.10;;;;;;4994589;28;20539;-73
2023/09/10 09:41:10;;;;;;;9.33;8.47;;;28.50;78.40;;;;;;4984656;28;21081;-74
2023/09/10 09:43:36;;;;;;;10.13;9.33;;;28.60;75.80;;;;;;4982234;28;20457;-74
2023/09/10 09:46:02;;;;;;;10.90;9.90;;;29.30;76.40;;;;;;4987044;28;20897;-74
2023/09/10 09:48:29;;;;;;;11.60;10.60;;;29.80;75.90;;;;;;4988281;28;20213;-74
2023/09/10 09:50:56;;;;;;;9.80;7.77;;;30.00;73.30;;;;;;4981189;28;20784;-73
2023/09/10 09:53:30;;;;;;;8.53;7.70;;;29.70;69.40;;;;;;4986359;28;20977;-74
2023/09/10 09:55:56;;;;;;;9.03;8.27;;;29.40;67.90;;;;;;4984844;28;20443;-76
2023/09/10 09:58:22;;;;;;;10.63;9.70;;;29.40;71.30;;;;;;4986702;28;20992;-73
2023/09/10 10:00:48;;;;;;;10.90;9.40;;;29.50;72.90;;;;;;4983700;28;20464;-74
2023/09/10 10:03:16;;;;;;;9.63;8.90;;;29.40;72.50;;;;;;4980566;28;20199;-73
2023/09/10 10:05:42;;;;;;;9.77;8.97;;;29.40;71.50;;;;;;4981422;28;20249;-74
2023/09/10 10:08:08;;;;;;;10.57;9.50;;;29.40;72.20;;;;;;4983632;28;20487;-74
2023/09/10 10:10:34;;;;;;;9.23;8.53;;;29.20;71.70;;;;;;4981010;28;20962;-74
2023/09/10 10:13:01;;;;;;;10.07;9.17;;;29.20;73.20;;;;;;4982605;28;20195;-73
2023/09/10 10:15:27;;;;;;;8.77;8.07;;;29.40;73.10;;;;;;4981763;28;20481;-74
2023/09/10 10:17:54;;;;;;;9.60;8.70;;;29.20;72.90;;;;;;4981483;28;20547;-74
2023/09/10 10:20:21;;;;;;;9.73;8.63;;;29.10;73.70;;;;;;4986647;28;20967;-74
2023/09/10 10:22:47;;;;;;;9.30;8.50;;;29.20;73.40;;;;;;4986034;28;20486;-74
2023/09/10 10:25:13;;;;;;;12.03;9.87;;;29.00;75.00;;;;;;4986803;28;20445;-73
2023/09/10 10:27:42;;;;;;;10.10;9.17;;;29.10;75.20;;;;;;4992903;28;20468;-74
2023/09/10 10:30:08;;;;;;;10.90;9.10;;;29.20;74.70;;;;;;4980991;28;20280;-74
2023/09/10 10:32:45;;;;;;;10.13;9.20;;;29.40;74.00;;;;;;4979169;28;20598;-72
2023/09/10 10:35:10;;;;;;;10.00;8.80;;;29.30;73.20;;;;;;4983745;28;20457;-71
2023/09/10 10:37:56;;;;;;;10.00;9.13;;;29.40;73.60;;;;;;4982740;28;20460;-72
2023/09/10 10:40:43;;;;;;;10.63;9.63;;;29.60;73.40;;;;;;4985054;28;20236;-73
2023/09/10 10:43:17;;;;;;;10.10;9.10;;;29.20;73.60;;;;;;4982760;28;20461;-73
2023/09/10 10:45:46;;;;;;;10.30;8.70;;;29.20;74.60;;;;;;4981024;28;20449;-73
2023/09/10 10:48:20;;;;;;;10.03;9.20;;;29.30;74.30;;;;;;4984970;28;20559;-74
2023/09/10 10:50:48;;;;;;;9.97;9.07;;;29.40;74.30;;;;;;4984431;28;20566;-72
2023/09/10 10:53:26;;;;;;;9.47;8.67;;;29.40;73.90;;;;;;4983864;28;20450;-72
2023/09/10 10:55:56;;;;;;;11.67;9.23;;;29.50;73.90;;;;;;4987062;28;20441;-72
2023/09/10 10:58:27;;;;;;;9.77;8.77;;;29.40;73.80;;;;;;4982332;28;20467;-74
2023/09/10 11:00:54;;;;;;;9.23;8.43;;;29.20;74.20;;;;;;4985054;28;20481;-74
2023/09/10 11:03:21;;;;;;;9.93;9.27;;;29.40;74.40;;;;;;4982841;28;20779;-73
2023/09/10 11:05:53;;;;;;;8.17;7.37;;;29.50;73.70;;;;;;4986231;28;20450;-74
2023/09/10 11:08:28;;;;;;;9.77;8.87;;;29.70;72.30;;;;;;4998794;28;20481;-73
2023/09/10 11:10:54;;;;;;;9.60;8.70;;;29.80;72.10;;;;;;4986797;28;20438;-72
2023/09/10 11:13:22;;;;;;;9.07;8.37;;;29.90;71.70;;;;;;4986435;28;20439;-75
2023/09/10 11:16:06;;;;;;;9.30;8.60;;;30.50;71.70;;;;;;4987226;28;20471;-75
2023/09/10 11:18:35;;;;;;;9.50;8.70;;;29.80;70.80;;;;;;4987186;28;20464;-74
2023/09/10 11:21:01;;;;;;;9.43;8.63;;;29.70;70.70;;;;;;4986319;28;21239;-74
2023/09/10 11:23:26;;;;;;;10.40;8.67;;;29.80;71.00;;;;;;4983822;28;20550;-73
2023/09/10 11:25:52;;;;;;;9.37;8.60;;;29.90;70.80;;;;;;4985924;28;20526;-73
2023/09/10 11:28:39;;;;;;;9.33;8.57;;;30.10;71.00;;;;;;4989680;28;20270;-73
2023/09/10 11:31:04;;;;;;;9.03;8.33;;;30.10;69.60;;;;;;5000616;28;20193;-74
2023/09/10 11:33:31;;;;;;;9.40;8.40;;;30.20;70.00;;;;;;4988541;28;20526;-74
2023/09/10 11:35:59;;;;;;;9.23;8.33;;;30.30;69.50;;;;;;4984443;28;20190;-74
2023/09/10 11:38:30;;;;;;;11.20;8.80;;;30.40;68.50;;;;;;4987716;28;20466;-72
2023/09/10 11:40:56;;;;;;;8.50;7.90;;;30.20;69.70;;;;;;4984584;28;20481;-73
2023/09/10 11:43:23;;;;;;;9.67;8.80;;;30.30;69.20;;;;;;4986982;28;20450;-73
2023/09/10 11:45:48;;;;;;;10.47;9.57;;;30.10;70.60;;;;;;4987206;28;20908;-73
2023/09/10 11:48:14;;;;;;;8.53;7.70;;;30.20;71.00;;;;;;4988081;28;20561;-73
2023/09/10 11:50:39;;;;;;;9.37;8.53;;;30.10;70.90;;;;;;4987608;28;20180;-74
2023/09/10 11:53:05;;;;;;;9.83;8.10;;;30.20;70.00;;;;;;4984264;28;20657;-73
2023/09/10 11:55:31;;;;;;;10.60;9.70;;;30.20;70.40;;;;;;4986195;28;20192;-73
2023/09/10 11:57:56;;;;;;;10.50;9.60;;;30.50;71.00;;;;;;4986481;28;20214;-72
2023/09/10 12:00:23;;;;;;;9.00;8.20;;;30.70;69.70;;;;;;4986352;28;20243;-74
2023/09/10 12:02:49;;;;;;;10.50;9.60;;;31.00;68.80;;;;;;5000056;28;20195;-74
2023/09/10 12:05:15;;;;;;;9.60;8.80;;;31.60;67.90;;;;;;4987419;28;20446;-74
2023/09/10 12:07:44;;;;;;;9.20;8.40;;;31.80;66.10;;;;;;4985234;28;20473;-75
2023/09/10 12:10:10;;;;;;;9.20;8.10;;;31.80;65.50;;;;;;4987284;28;20934;-74
2023/09/10 12:12:37;;;;;;;9.90;8.90;;;31.70;65.20;;;;;;4981667;28;20460;-74
2023/09/10 12:15:04;;;;;;;12.23;9.10;;;31.70;65.30;;;;;;4986026;28;20954;-74
2023/09/10 12:17:30;;;;;;;10.03;9.20;;;31.60;67.20;;;;;;4983421;28;20442;-74
2023/09/10 12:19:57;;;;;;;10.30;9.40;;;31.30;67.10;;;;;;4980204;28;20891;-75
2023/09/10 12:22:22;;;;;;;10.77;9.13;;;31.20;68.00;;;;;;4983767;28;20479;-74
2023/09/10 12:24:48;;;;;;;9.13;8.23;;;31.00;67.80;;;;;;4985235;28;20486;-74
2023/09/10 12:27:14;;;;;;;10.23;9.20;;;30.80;68.00;;;;;;4981556;28;20212;-74
2023/09/10 12:29:40;;;;;;;9.97;9.17;;;30.90;67.70;;;;;;4985380;28;20213;-74
2023/09/10 12:32:06;;;;;;;10.97;9.47;;;31.20;68.50;;;;;;4986897;28;20531;-74
2023/09/10 12:34:32;;;;;;;9.00;8.30;;;31.00;67.40;;;;;;4983725;28;20444;-74